sensor_id;sensor_type;location;lat;lon;timestamp;temperature;humidity
17774;DHT22;9011;33.236;-97.118;2022-10-13T00:00:50;29.00;99.90
17774;DHT22;9011;33.236;-97.118;2022-10-13T00:03:19;28.80;99.90
17774;DHT22;9011;33.236;-97.118;2022-10-13T00:05:49;28.80;99.90
17774;DHT22;9011;33.236;-97.118;2022-10-13T00:08:19;28.70;99.90
17774;DHT22;9011;33.236;-97.118;2022-10-13T00:10:49;28.50;99.90
17774;DHT22;9011;33.236;-97.118;2022-10-13T00:13:18;28.50;99.90
17774;DHT22;9011;33.236;-97.118;2022-10-13T00:15:49;28.50;99.90
17774;DHT22;9011;33.236;-97.118;2022-10-13T00:18:17;28.20;99.90
17774;DHT22;9011;33.236;-97.118;2022-10-13T00:20:47;28.10;99.90
17774;DHT22;9011;33.236;-97.118;2022-10-13T00:23:16;28.00;99.90
17774;DHT22;9011;33.236;-97.118;2022-10-13T00:25:46;27.90;99.90
17774;DHT22;9011;33.236;-97.118;2022-10-13T00:28:16;27.90;99.90
17774;DHT22;9011;33.236;-97.118;2022-10-13T00:30:45;27.80;99.90
17774;DHT22;9011;33.236;-97.118;2022-10-13T00:33:15;27.60;99.90
17774;DHT22;9011;33.236;-97.118;2022-10-13T00:35:45;27.50;99.90
17774;DHT22;9011;33.236;-97.118;2022-10-13T00:38:15;27.50;99.90
17774;DHT22;9011;33.236;-97.118;2022-10-13T00:40:45;27.40;99.90
17774;DHT22;9011;33.236;-97.118;2022-10-13T00:43:18;27.40;99.90
17774;DHT22;9011;33.236;-97.118;2022-10-13T00:45:47;27.30;99.90
17774;DHT22;9011;33.236;-97.118;2022-10-13T00:48:19;27.20;99.90
17774;DHT22;9011;33.236;-97.118;2022-10-13T00:50:49;27.20;99.90
17774;DHT22;9011;33.236;-97.118;2022-10-13T00:53:21;27.20;99.90
17774;DHT22;9011;33.236;-97.118;2022-10-13T00:55:50;27.10;99.90
17774;DHT22;9011;33.236;-97.118;2022-10-13T00:58:20;27.00;99.90
17774;DHT22;9011;33.236;-97.118;2022-10-13T01:00:50;26.80;99.90
17774;DHT22;9011;33.236;-97.118;2022-10-13T01:03:21;26.80;99.90
17774;DHT22;9011;33.236;-97.118;2022-10-13T01:05:52;26.80;99.90
17774;DHT22;9011;33.236;-97.118;2022-10-13T01:08:22;26.60;99.90
17774;DHT22;9011;33.236;-97.118;2022-10-13T01:10:58;26.60;99.90
17774;DHT22;9011;33.236;-97.118;2022-10-13T01:13:37;26.60;99.90
17774;DHT22;9011;33.236;-97.118;2022-10-13T01:16:12;26.50;99.90
17774;DHT22;9011;33.236;-97.118;2022-10-13T01:18:52;26.50;99.90
17774;DHT22;9011;33.236;-97.118;2022-10-13T01:21:27;26.50;99.90
17774;DHT22;9011;33.236;-97.118;2022-10-13T01:27:11;26.40;99.90
17774;DHT22;9011;33.236;-97.118;2022-10-13T01:30:07;26.30;99.90
17774;DHT22;9011;33.236;-97.118;2022-10-13T01:32:47;26.30;99.90
17774;DHT22;9011;33.236;-97.118;2022-10-13T01:35:22;26.20;99.90
17774;DHT22;9011;33.236;-97.118;2022-10-13T01:37:56;26.20;99.90
17774;DHT22;9011;33.236;-97.118;2022-10-13T01:40:31;26.20;99.90
17774;DHT22;9011;33.236;-97.118;2022-10-13T01:43:06;26.20;99.90
17774;DHT22;9011;33.236;-97.118;2022-10-13T01:45:39;26.20;99.90
17774;DHT22;9011;33.236;-97.118;2022-10-13T01:48:10;26.20;99.90
17774;DHT22;9011;33.236;-97.118;2022-10-13T01:50:39;26.20;99.90
17774;DHT22;9011;33.236;-97.118;2022-10-13T01:53:10;26.10;99.90
17774;DHT22;9011;33.236;-97.118;2022-10-13T01:55:52;26.10;99.90
17774;DHT22;9011;33.236;-97.118;2022-10-13T01:58:25;26.10;99.90
17774;DHT22;9011;33.236;-97.118;2022-10-13T02:01:17;26.10;99.90
17774;DHT22;9011;33.236;-97.118;2022-10-13T02:03:56;26.10;99.90
17774;DHT22;9011;33.236;-97.118;2022-10-13T02:06:31;26.00;99.70
17774;DHT22;9011;33.236;-97.118;2022-10-13T02:09:05;25.90;99.30
17774;DHT22;9011;33.236;-97.118;2022-10-13T02:11:35;25.80;99.10
17774;DHT22;9011;33.236;-97.118;2022-10-13T02:14:12;25.70;98.90
17774;DHT22;9011;33.236;-97.118;2022-10-13T02:16:44;25.60;99.10
17774;DHT22;9011;33.236;-97.118;2022-10-13T02:19:16;25.50;98.40
17774;DHT22;9011;33.236;-97.118;2022-10-13T02:21:46;25.50;98.10
17774;DHT22;9011;33.236;-97.118;2022-10-13T02:24:15;25.40;98.10
17774;DHT22;9011;33.236;-97.118;2022-10-13T02:26:48;25.40;97.90
17774;DHT22;9011;33.236;-97.118;2022-10-13T02:29:19;25.20;97.70
17774;DHT22;9011;33.236;-97.118;2022-10-13T02:31:51;25.20;98.00
17774;DHT22;9011;33.236;-97.118;2022-10-13T02:34:22;25.10;97.50
17774;DHT22;9011;33.236;-97.118;2022-10-13T02:36:50;25.10;97.30
17774;DHT22;9011;33.236;-97.118;2022-10-13T02:39:19;25.00;97.50
17774;DHT22;9011;33.236;-97.118;2022-10-13T02:41:47;25.00;97.10
17774;DHT22;9011;33.236;-97.118;2022-10-13T02:44:49;24.90;96.70
17774;DHT22;9011;33.236;-97.118;2022-10-13T02:51:02;24.90;96.70
17774;DHT22;9011;33.236;-97.118;2022-10-13T02:53:39;24.80;96.80
17774;DHT22;9011;33.236;-97.118;2022-10-13T02:56:21;24.80;96.80
17774;DHT22;9011;33.236;-97.118;2022-10-13T02:58:49;24.70;96.40
17774;DHT22;9011;33.236;-97.118;2022-10-13T03:01:27;24.60;96.60
17774;DHT22;9011;33.236;-97.118;2022-10-13T03:03:58;24.60;96.40
17774;DHT22;9011;33.236;-97.118;2022-10-13T03:06:28;24.50;96.70
17774;DHT22;9011;33.236;-97.118;2022-10-13T03:08:56;24.40;96.70
17774;DHT22;9011;33.236;-97.118;2022-10-13T03:11:24;24.30;96.50
17774;DHT22;9011;33.236;-97.118;2022-10-13T03:13:53;24.20;97.00
17774;DHT22;9011;33.236;-97.118;2022-10-13T03:16:21;24.20;96.40
17774;DHT22;9011;33.236;-97.118;2022-10-13T03:18:49;24.10;96.60
17774;DHT22;9011;33.236;-97.118;2022-10-13T03:21:21;24.10;96.40
17774;DHT22;9011;33.236;-97.118;2022-10-13T03:23:51;24.00;96.50
17774;DHT22;9011;33.236;-97.118;2022-10-13T03:26:19;23.90;96.50
17774;DHT22;9011;33.236;-97.118;2022-10-13T03:28:48;23.90;96.80
17774;DHT22;9011;33.236;-97.118;2022-10-13T03:31:17;23.80;96.50
17774;DHT22;9011;33.236;-97.118;2022-10-13T03:33:45;23.80;96.00
17774;DHT22;9011;33.236;-97.118;2022-10-13T03:36:14;23.70;96.20
17774;DHT22;9011;33.236;-97.118;2022-10-13T03:38:42;23.70;96.30
17774;DHT22;9011;33.236;-97.118;2022-10-13T03:41:14;23.60;96.70
17774;DHT22;9011;33.236;-97.118;2022-10-13T03:43:43;23.40;96.40
17774;DHT22;9011;33.236;-97.118;2022-10-13T03:46:12;23.40;96.40
17774;DHT22;9011;33.236;-97.118;2022-10-13T03:48:41;23.20;96.60
17774;DHT22;9011;33.236;-97.118;2022-10-13T03:51:12;23.20;96.30
17774;DHT22;9011;33.236;-97.118;2022-10-13T03:53:41;23.20;96.40
17774;DHT22;9011;33.236;-97.118;2022-10-13T03:56:15;23.10;96.50
17774;DHT22;9011;33.236;-97.118;2022-10-13T03:58:44;23.20;96.20
17774;DHT22;9011;33.236;-97.118;2022-10-13T04:01:13;23.10;96.60
17774;DHT22;9011;33.236;-97.118;2022-10-13T04:03:42;23.10;95.90
17774;DHT22;9011;33.236;-97.118;2022-10-13T04:06:10;23.10;96.00
17774;DHT22;9011;33.236;-97.118;2022-10-13T04:08:38;23.00;96.00
17774;DHT22;9011;33.236;-97.118;2022-10-13T04:11:09;23.10;95.70
17774;DHT22;9011;33.236;-97.118;2022-10-13T04:13:40;23.00;95.70
17774;DHT22;9011;33.236;-97.118;2022-10-13T04:16:11;23.00;95.60
17774;DHT22;9011;33.236;-97.118;2022-10-13T04:18:40;22.90;96.00
17774;DHT22;9011;33.236;-97.118;2022-10-13T04:21:08;22.80;95.90
17774;DHT22;9011;33.236;-97.118;2022-10-13T04:23:37;22.80;96.00
17774;DHT22;9011;33.236;-97.118;2022-10-13T04:26:06;22.70;95.80
17774;DHT22;9011;33.236;-97.118;2022-10-13T04:28:34;22.60;96.30
17774;DHT22;9011;33.236;-97.118;2022-10-13T04:31:04;22.50;96.00
17774;DHT22;9011;33.236;-97.118;2022-10-13T04:33:32;22.50;95.90
17774;DHT22;9011;33.236;-97.118;2022-10-13T04:36:03;22.50;95.90
17774;DHT22;9011;33.236;-97.118;2022-10-13T04:38:31;22.40;96.40
17774;DHT22;9011;33.236;-97.118;2022-10-13T04:41:01;22.30;96.00
17774;DHT22;9011;33.236;-97.118;2022-10-13T04:43:30;22.20;96.30
17774;DHT22;9011;33.236;-97.118;2022-10-13T04:46:04;22.20;96.20
17774;DHT22;9011;33.236;-97.118;2022-10-13T04:48:33;22.10;95.90
17774;DHT22;9011;33.236;-97.118;2022-10-13T04:51:02;22.10;95.70
17774;DHT22;9011;33.236;-97.118;2022-10-13T04:53:31;21.90;95.90
17774;DHT22;9011;33.236;-97.118;2022-10-13T04:56:01;21.90;96.10
17774;DHT22;9011;33.236;-97.118;2022-10-13T04:58:29;21.90;95.20
17774;DHT22;9011;33.236;-97.118;2022-10-13T05:00:58;21.90;95.70
17774;DHT22;9011;33.236;-97.118;2022-10-13T05:03:28;21.90;95.60
17774;DHT22;9011;33.236;-97.118;2022-10-13T05:05:56;21.80;95.50
17774;DHT22;9011;33.236;-97.118;2022-10-13T05:08:25;21.80;95.50
17774;DHT22;9011;33.236;-97.118;2022-10-13T05:10:54;21.70;95.60
17774;DHT22;9011;33.236;-97.118;2022-10-13T05:13:23;21.80;94.90
17774;DHT22;9011;33.236;-97.118;2022-10-13T05:15:51;21.70;95.10
17774;DHT22;9011;33.236;-97.118;2022-10-13T05:18:19;21.60;94.80
17774;DHT22;9011;33.236;-97.118;2022-10-13T05:20:49;21.70;94.70
17774;DHT22;9011;33.236;-97.118;2022-10-13T05:23:17;21.50;94.60
17774;DHT22;9011;33.236;-97.118;2022-10-13T05:25:46;21.40;94.80
17774;DHT22;9011;33.236;-97.118;2022-10-13T05:28:14;21.50;94.60
17774;DHT22;9011;33.236;-97.118;2022-10-13T05:30:42;21.40;94.60
17774;DHT22;9011;33.236;-97.118;2022-10-13T05:33:11;21.30;94.40
17774;DHT22;9011;33.236;-97.118;2022-10-13T05:35:39;21.20;94.80
17774;DHT22;9011;33.236;-97.118;2022-10-13T05:38:09;21.20;94.80
17774;DHT22;9011;33.236;-97.118;2022-10-13T05:40:37;21.20;94.50
17774;DHT22;9011;33.236;-97.118;2022-10-13T05:43:05;21.10;94.90
17774;DHT22;9011;33.236;-97.118;2022-10-13T05:45:34;21.10;94.70
17774;DHT22;9011;33.236;-97.118;2022-10-13T05:48:02;21.10;94.30
17774;DHT22;9011;33.236;-97.118;2022-10-13T05:50:30;21.00;94.70
17774;DHT22;9011;33.236;-97.118;2022-10-13T05:52:58;20.90;94.50
17774;DHT22;9011;33.236;-97.118;2022-10-13T05:55:28;20.90;94.60
17774;DHT22;9011;33.236;-97.118;2022-10-13T05:57:57;20.80;94.80
17774;DHT22;9011;33.236;-97.118;2022-10-13T06:00:25;20.70;95.00
17774;DHT22;9011;33.236;-97.118;2022-10-13T06:02:55;20.70;94.80
17774;DHT22;9011;33.236;-97.118;2022-10-13T06:05:26;20.60;95.00
17774;DHT22;9011;33.236;-97.118;2022-10-13T06:07:54;20.60;95.10
17774;DHT22;9011;33.236;-97.118;2022-10-13T06:10:23;20.60;94.80
17774;DHT22;9011;33.236;-97.118;2022-10-13T06:12:53;20.50;95.00
17774;DHT22;9011;33.236;-97.118;2022-10-13T06:15:21;20.40;94.90
17774;DHT22;9011;33.236;-97.118;2022-10-13T06:17:50;20.40;95.50
17774;DHT22;9011;33.236;-97.118;2022-10-13T06:20:18;20.30;96.20
17774;DHT22;9011;33.236;-97.118;2022-10-13T06:22:47;20.30;96.10
17774;DHT22;9011;33.236;-97.118;2022-10-13T06:25:16;20.20;96.50
17774;DHT22;9011;33.236;-97.118;2022-10-13T06:27:44;20.30;96.10
17774;DHT22;9011;33.236;-97.118;2022-10-13T06:30:14;20.20;96.40
17774;DHT22;9011;33.236;-97.118;2022-10-13T06:32:43;20.20;96.50
17774;DHT22;9011;33.236;-97.118;2022-10-13T06:35:11;20.00;96.20
17774;DHT22;9011;33.236;-97.118;2022-10-13T06:37:39;20.00;96.80
17774;DHT22;9011;33.236;-97.118;2022-10-13T06:40:09;19.90;96.50
17774;DHT22;9011;33.236;-97.118;2022-10-13T06:42:37;19.80;96.80
17774;DHT22;9011;33.236;-97.118;2022-10-13T06:45:06;19.70;97.10
17774;DHT22;9011;33.236;-97.118;2022-10-13T06:47:36;19.70;97.50
17774;DHT22;9011;33.236;-97.118;2022-10-13T06:50:05;19.60;97.10
17774;DHT22;9011;33.236;-97.118;2022-10-13T06:52:33;19.50;97.50
17774;DHT22;9011;33.236;-97.118;2022-10-13T06:55:01;19.50;97.80
17774;DHT22;9011;33.236;-97.118;2022-10-13T06:57:29;19.40;97.80
17774;DHT22;9011;33.236;-97.118;2022-10-13T06:59:58;19.30;98.20
17774;DHT22;9011;33.236;-97.118;2022-10-13T07:02:26;19.20;98.40
17774;DHT22;9011;33.236;-97.118;2022-10-13T07:04:56;19.10;98.30
17774;DHT22;9011;33.236;-97.118;2022-10-13T07:07:24;19.00;98.40
17774;DHT22;9011;33.236;-97.118;2022-10-13T07:09:53;18.90;98.50
17774;DHT22;9011;33.236;-97.118;2022-10-13T07:12:21;18.80;98.90
17774;DHT22;9011;33.236;-97.118;2022-10-13T07:14:49;18.70;99.70
17774;DHT22;9011;33.236;-97.118;2022-10-13T07:17:17;18.60;99.00
17774;DHT22;9011;33.236;-97.118;2022-10-13T07:19:46;18.50;99.00
17774;DHT22;9011;33.236;-97.118;2022-10-13T07:22:16;18.40;99.10
17774;DHT22;9011;33.236;-97.118;2022-10-13T07:24:44;18.30;99.90
17774;DHT22;9011;33.236;-97.118;2022-10-13T07:27:13;18.20;99.90
17774;DHT22;9011;33.236;-97.118;2022-10-13T07:29:42;18.00;99.90
17774;DHT22;9011;33.236;-97.118;2022-10-13T07:32:10;17.90;99.90
17774;DHT22;9011;33.236;-97.118;2022-10-13T07:34:38;17.80;99.90
17774;DHT22;9011;33.236;-97.118;2022-10-13T07:37:06;17.80;99.90
17774;DHT22;9011;33.236;-97.118;2022-10-13T07:39:36;17.70;99.90
17774;DHT22;9011;33.236;-97.118;2022-10-13T07:42:05;17.60;99.90
17774;DHT22;9011;33.236;-97.118;2022-10-13T07:44:33;17.50;99.90
17774;DHT22;9011;33.236;-97.118;2022-10-13T07:47:01;17.40;99.90
17774;DHT22;9011;33.236;-97.118;2022-10-13T07:49:30;17.40;99.90
17774;DHT22;9011;33.236;-97.118;2022-10-13T07:51:58;17.30;99.90
17774;DHT22;9011;33.236;-97.118;2022-10-13T07:54:26;17.20;99.90
17774;DHT22;9011;33.236;-97.118;2022-10-13T07:56:56;17.20;99.90
17774;DHT22;9011;33.236;-97.118;2022-10-13T07:59:25;17.00;99.90
17774;DHT22;9011;33.236;-97.118;2022-10-13T08:01:53;17.00;99.90
17774;DHT22;9011;33.236;-97.118;2022-10-13T08:04:21;17.00;99.90
17774;DHT22;9011;33.236;-97.118;2022-10-13T08:06:50;16.90;99.90
17774;DHT22;9011;33.236;-97.118;2022-10-13T08:09:19;16.70;99.90
17774;DHT22;9011;33.236;-97.118;2022-10-13T08:11:47;16.50;99.90
17774;DHT22;9011;33.236;-97.118;2022-10-13T08:14:17;16.50;99.90
17774;DHT22;9011;33.236;-97.118;2022-10-13T08:16:45;16.40;99.90
17774;DHT22;9011;33.236;-97.118;2022-10-13T08:19:14;16.50;99.90
17774;DHT22;9011;33.236;-97.118;2022-10-13T08:21:42;16.40;99.90
17774;DHT22;9011;33.236;-97.118;2022-10-13T08:24:13;16.40;99.90
17774;DHT22;9011;33.236;-97.118;2022-10-13T08:26:41;16.30;99.90
17774;DHT22;9011;33.236;-97.118;2022-10-13T08:29:10;16.30;99.90
17774;DHT22;9011;33.236;-97.118;2022-10-13T08:31:41;16.10;99.90
17774;DHT22;9011;33.236;-97.118;2022-10-13T08:34:10;16.10;99.90
17774;DHT22;9011;33.236;-97.118;2022-10-13T08:36:38;16.10;99.90
17774;DHT22;9011;33.236;-97.118;2022-10-13T08:39:08;16.10;99.90
17774;DHT22;9011;33.236;-97.118;2022-10-13T08:41:38;16.10;99.90
17774;DHT22;9011;33.236;-97.118;2022-10-13T08:44:18;16.10;99.90
17774;DHT22;9011;33.236;-97.118;2022-10-13T08:46:58;16.10;99.90
17774;DHT22;9011;33.236;-97.118;2022-10-13T08:49:30;15.90;99.90
17774;DHT22;9011;33.236;-97.118;2022-10-13T08:51:58;15.90;99.90
17774;DHT22;9011;33.236;-97.118;2022-10-13T08:54:30;15.90;99.90
17774;DHT22;9011;33.236;-97.118;2022-10-13T08:56:58;15.90;99.90
17774;DHT22;9011;33.236;-97.118;2022-10-13T08:59:26;15.90;99.90
17774;DHT22;9011;33.236;-97.118;2022-10-13T09:01:56;15.90;99.90
17774;DHT22;9011;33.236;-97.118;2022-10-13T09:04:31;15.70;99.90
17774;DHT22;9011;33.236;-97.118;2022-10-13T09:07:04;15.70;99.90
17774;DHT22;9011;33.236;-97.118;2022-10-13T09:09:33;15.70;99.90
17774;DHT22;9011;33.236;-97.118;2022-10-13T09:12:02;15.80;99.90
17774;DHT22;9011;33.236;-97.118;2022-10-13T09:14:33;15.70;99.90
17774;DHT22;9011;33.236;-97.118;2022-10-13T09:17:15;15.70;99.90
17774;DHT22;9011;33.236;-97.118;2022-10-13T09:19:44;15.60;99.90
17774;DHT22;9011;33.236;-97.118;2022-10-13T09:22:28;15.50;99.90
17774;DHT22;9011;33.236;-97.118;2022-10-13T09:25:18;15.50;99.90
17774;DHT22;9011;33.236;-97.118;2022-10-13T09:27:49;15.30;99.90
17774;DHT22;9011;33.236;-97.118;2022-10-13T09:30:28;15.30;99.90
17774;DHT22;9011;33.236;-97.118;2022-10-13T09:33:16;15.30;99.90
17774;DHT22;9011;33.236;-97.118;2022-10-13T09:35:47;15.10;99.90
17774;DHT22;9011;33.236;-97.118;2022-10-13T09:38:18;15.00;99.90
17774;DHT22;9011;33.236;-97.118;2022-10-13T09:40:57;15.00;99.90
17774;DHT22;9011;33.236;-97.118;2022-10-13T09:43:31;15.10;99.90
17774;DHT22;9011;33.236;-97.118;2022-10-13T09:46:01;14.90;99.90
17774;DHT22;9011;33.236;-97.118;2022-10-13T09:48:34;14.80;99.90
17774;DHT22;9011;33.236;-97.118;2022-10-13T09:51:03;14.70;99.90
17774;DHT22;9011;33.236;-97.118;2022-10-13T09:53:33;14.70;99.90
17774;DHT22;9011;33.236;-97.118;2022-10-13T09:56:14;14.70;99.90
17774;DHT22;9011;33.236;-97.118;2022-10-13T09:58:49;14.90;99.90
17774;DHT22;9011;33.236;-97.118;2022-10-13T10:01:23;14.80;99.90
17774;DHT22;9011;33.236;-97.118;2022-10-13T10:03:54;14.80;99.90
17774;DHT22;9011;33.236;-97.118;2022-10-13T10:06:24;14.90;99.90
17774;DHT22;9011;33.236;-97.118;2022-10-13T10:08:55;14.70;99.90
17774;DHT22;9011;33.236;-97.118;2022-10-13T10:11:27;14.80;99.90
17774;DHT22;9011;33.236;-97.118;2022-10-13T10:13:57;14.80;99.90
17774;DHT22;9011;33.236;-97.118;2022-10-13T10:16:30;14.80;99.90
17774;DHT22;9011;33.236;-97.118;2022-10-13T10:19:07;14.90;99.90
17774;DHT22;9011;33.236;-97.118;2022-10-13T10:21:44;14.80;99.90
17774;DHT22;9011;33.236;-97.118;2022-10-13T10:24:20;14.80;99.90
17774;DHT22;9011;33.236;-97.118;2022-10-13T10:26:54;14.90;99.90
17774;DHT22;9011;33.236;-97.118;2022-10-13T10:29:29;14.90;99.90
17774;DHT22;9011;33.236;-97.118;2022-10-13T10:32:11;14.70;99.90
17774;DHT22;9011;33.236;-97.118;2022-10-13T10:34:47;14.70;99.90
17774;DHT22;9011;33.236;-97.118;2022-10-13T10:37:30;14.60;99.90
17774;DHT22;9011;33.236;-97.118;2022-10-13T10:40:14;14.50;99.90
17774;DHT22;9011;33.236;-97.118;2022-10-13T10:45:43;14.30;99.90
17774;DHT22;9011;33.236;-97.118;2022-10-13T10:48:20;14.20;99.90
17774;DHT22;9011;33.236;-97.118;2022-10-13T10:50:52;14.20;99.90
17774;DHT22;9011;33.236;-97.118;2022-10-13T10:53:25;14.00;99.90
17774;DHT22;9011;33.236;-97.118;2022-10-13T10:56:02;14.00;99.90
17774;DHT22;9011;33.236;-97.118;2022-10-13T10:58:37;13.90;99.90
17774;DHT22;9011;33.236;-97.118;2022-10-13T11:01:16;14.00;99.90
17774;DHT22;9011;33.236;-97.118;2022-10-13T11:03:53;14.00;99.90
17774;DHT22;9011;33.236;-97.118;2022-10-13T11:06:32;14.10;99.90
17774;DHT22;9011;33.236;-97.118;2022-10-13T11:09:01;13.90;99.90
17774;DHT22;9011;33.236;-97.118;2022-10-13T11:11:35;13.90;99.90
17774;DHT22;9011;33.236;-97.118;2022-10-13T11:14:22;13.80;99.90
17774;DHT22;9011;33.236;-97.118;2022-10-13T11:17:14;14.00;99.90
17774;DHT22;9011;33.236;-97.118;2022-10-13T11:19:44;13.80;99.90
17774;DHT22;9011;33.236;-97.118;2022-10-13T11:22:16;13.70;99.90
17774;DHT22;9011;33.236;-97.118;2022-10-13T11:24:47;13.60;99.90
17774;DHT22;9011;33.236;-97.118;2022-10-13T11:27:24;13.80;99.90
17774;DHT22;9011;33.236;-97.118;2022-10-13T11:29:57;13.70;99.90
17774;DHT22;9011;33.236;-97.118;2022-10-13T11:32:45;13.50;99.90
17774;DHT22;9011;33.236;-97.118;2022-10-13T11:35:26;13.60;99.90
17774;DHT22;9011;33.236;-97.118;2022-10-13T11:38:22;13.60;99.90
17774;DHT22;9011;33.236;-97.118;2022-10-13T11:41:08;13.60;99.90
17774;DHT22;9011;33.236;-97.118;2022-10-13T11:43:49;13.60;99.90
17774;DHT22;9011;33.236;-97.118;2022-10-13T11:46:25;13.70;99.90
17774;DHT22;9011;33.236;-97.118;2022-10-13T11:49:22;13.70;99.90
17774;DHT22;9011;33.236;-97.118;2022-10-13T11:52:17;13.80;99.90
17774;DHT22;9011;33.236;-97.118;2022-10-13T11:54:57;13.70;99.90
17774;DHT22;9011;33.236;-97.118;2022-10-13T11:57:28;13.70;99.90
17774;DHT22;9011;33.236;-97.118;2022-10-13T11:59:58;13.70;99.90
17774;DHT22;9011;33.236;-97.118;2022-10-13T12:02:26;13.70;99.90
17774;DHT22;9011;33.236;-97.118;2022-10-13T12:05:05;13.70;99.90
17774;DHT22;9011;33.236;-97.118;2022-10-13T12:07:36;13.50;99.90
17774;DHT22;9011;33.236;-97.118;2022-10-13T12:10:17;13.50;99.90
17774;DHT22;9011;33.236;-97.118;2022-10-13T12:12:47;13.50;99.90
17774;DHT22;9011;33.236;-97.118;2022-10-13T12:15:29;13.40;99.90
17774;DHT22;9011;33.236;-97.118;2022-10-13T12:17:59;13.40;99.90
17774;DHT22;9011;33.236;-97.118;2022-10-13T12:20:29;13.40;99.90
17774;DHT22;9011;33.236;-97.118;2022-10-13T12:22:57;13.30;99.90
17774;DHT22;9011;33.236;-97.118;2022-10-13T12:25:28;13.30;99.90
17774;DHT22;9011;33.236;-97.118;2022-10-13T12:27:59;13.20;99.90
17774;DHT22;9011;33.236;-97.118;2022-10-13T12:30:29;13.00;99.90
17774;DHT22;9011;33.236;-97.118;2022-10-13T12:33:01;12.90;99.90
17774;DHT22;9011;33.236;-97.118;2022-10-13T12:35:32;12.80;99.90
17774;DHT22;9011;33.236;-97.118;2022-10-13T12:38:02;12.70;99.90
17774;DHT22;9011;33.236;-97.118;2022-10-13T12:40:33;12.70;99.90
17774;DHT22;9011;33.236;-97.118;2022-10-13T12:43:03;12.70;99.90
17774;DHT22;9011;33.236;-97.118;2022-10-13T12:45:33;12.70;99.90
17774;DHT22;9011;33.236;-97.118;2022-10-13T12:48:01;12.70;99.90
17774;DHT22;9011;33.236;-97.118;2022-10-13T12:50:34;12.80;99.90
17774;DHT22;9011;33.236;-97.118;2022-10-13T12:53:09;12.70;99.90
17774;DHT22;9011;33.236;-97.118;2022-10-13T12:55:54;12.70;99.90
17774;DHT22;9011;33.236;-97.118;2022-10-13T12:58:27;12.70;99.90
17774;DHT22;9011;33.236;-97.118;2022-10-13T13:01:26;12.60;99.90
17774;DHT22;9011;33.236;-97.118;2022-10-13T13:03:57;12.70;99.90
17774;DHT22;9011;33.236;-97.118;2022-10-13T13:06:32;12.70;99.90
17774;DHT22;9011;33.236;-97.118;2022-10-13T13:09:28;12.70;99.90
17774;DHT22;9011;33.236;-97.118;2022-10-13T13:12:22;12.60;99.90
17774;DHT22;9011;33.236;-97.118;2022-10-13T13:14:51;12.60;99.90
17774;DHT22;9011;33.236;-97.118;2022-10-13T13:17:29;12.60;99.90
17774;DHT22;9011;33.236;-97.118;2022-10-13T13:19:58;12.70;99.90
17774;DHT22;9011;33.236;-97.118;2022-10-13T13:22:26;12.60;99.90
17774;DHT22;9011;33.236;-97.118;2022-10-13T13:24:54;12.70;99.90
17774;DHT22;9011;33.236;-97.118;2022-10-13T13:27:33;12.70;99.90
17774;DHT22;9011;33.236;-97.118;2022-10-13T13:30:03;12.80;99.90
17774;DHT22;9011;33.236;-97.118;2022-10-13T13:32:31;12.90;99.90
17774;DHT22;9011;33.236;-97.118;2022-10-13T13:35:00;13.00;99.90
17774;DHT22;9011;33.236;-97.118;2022-10-13T13:37:30;13.20;99.90
17774;DHT22;9011;33.236;-97.118;2022-10-13T13:40:01;13.30;99.90
17774;DHT22;9011;33.236;-97.118;2022-10-13T13:42:31;13.50;99.90
17774;DHT22;9011;33.236;-97.118;2022-10-13T13:44:59;13.80;99.90
17774;DHT22;9011;33.236;-97.118;2022-10-13T13:47:28;14.00;99.90
17774;DHT22;9011;33.236;-97.118;2022-10-13T13:49:56;14.20;99.90
17774;DHT22;9011;33.236;-97.118;2022-10-13T13:52:25;14.40;99.90
17774;DHT22;9011;33.236;-97.118;2022-10-13T13:54:54;14.60;99.90
17774;DHT22;9011;33.236;-97.118;2022-10-13T13:57:22;14.80;99.90
17774;DHT22;9011;33.236;-97.118;2022-10-13T13:59:52;15.00;99.90
17774;DHT22;9011;33.236;-97.118;2022-10-13T14:02:21;15.10;99.90
17774;DHT22;9011;33.236;-97.118;2022-10-13T14:04:49;15.30;99.90
17774;DHT22;9011;33.236;-97.118;2022-10-13T14:07:18;15.50;99.90
17774;DHT22;9011;33.236;-97.118;2022-10-13T14:09:47;15.60;99.90
17774;DHT22;9011;33.236;-97.118;2022-10-13T14:12:15;15.80;99.90
17774;DHT22;9011;33.236;-97.118;2022-10-13T14:14:43;15.90;99.90
17774;DHT22;9011;33.236;-97.118;2022-10-13T14:17:13;16.10;99.90
17774;DHT22;9011;33.236;-97.118;2022-10-13T14:19:42;16.20;99.90
17774;DHT22;9011;33.236;-97.118;2022-10-13T14:22:10;16.40;99.90
17774;DHT22;9011;33.236;-97.118;2022-10-13T14:24:38;16.50;99.90
17774;DHT22;9011;33.236;-97.118;2022-10-13T14:27:06;16.70;99.90
17774;DHT22;9011;33.236;-97.118;2022-10-13T14:29:35;16.80;99.90
17774;DHT22;9011;33.236;-97.118;2022-10-13T14:32:04;17.00;99.90
17774;DHT22;9011;33.236;-97.118;2022-10-13T14:34:34;17.20;99.90
17774;DHT22;9011;33.236;-97.118;2022-10-13T14:37:02;17.40;99.90
17774;DHT22;9011;33.236;-97.118;2022-10-13T14:39:30;17.50;99.90
17774;DHT22;9011;33.236;-97.118;2022-10-13T14:41:59;17.80;99.90
17774;DHT22;9011;33.236;-97.118;2022-10-13T14:44:27;17.90;99.90
17774;DHT22;9011;33.236;-97.118;2022-10-13T14:46:55;18.10;99.90
17774;DHT22;9011;33.236;-97.118;2022-10-13T14:49:23;18.20;99.90
17774;DHT22;9011;33.236;-97.118;2022-10-13T14:51:53;18.40;99.90
17774;DHT22;9011;33.236;-97.118;2022-10-13T14:54:22;18.60;99.90
17774;DHT22;9011;33.236;-97.118;2022-10-13T14:56:50;18.70;99.90
17774;DHT22;9011;33.236;-97.118;2022-10-13T14:59:18;18.80;99.90
17774;DHT22;9011;33.236;-97.118;2022-10-13T15:01:48;19.00;99.90
17774;DHT22;9011;33.236;-97.118;2022-10-13T15:04:16;19.20;99.90
17774;DHT22;9011;33.236;-97.118;2022-10-13T15:06:44;19.20;99.90
17774;DHT22;9011;33.236;-97.118;2022-10-13T15:09:14;19.40;99.90
17774;DHT22;9011;33.236;-97.118;2022-10-13T15:11:43;19.60;99.90
17774;DHT22;9011;33.236;-97.118;2022-10-13T15:14:13;19.80;99.90
17774;DHT22;9011;33.236;-97.118;2022-10-13T15:16:41;19.90;99.20
17774;DHT22;9011;33.236;-97.118;2022-10-13T15:19:09;20.00;98.40
17774;DHT22;9011;33.236;-97.118;2022-10-13T15:21:38;20.20;98.30
17774;DHT22;9011;33.236;-97.118;2022-10-13T15:24:07;20.40;98.40
17774;DHT22;9011;33.236;-97.118;2022-10-13T15:26:38;20.60;97.10
17774;DHT22;9011;33.236;-97.118;2022-10-13T15:29:06;20.90;96.50
17774;DHT22;9011;33.236;-97.118;2022-10-13T15:31:34;20.90;96.00
17774;DHT22;9011;33.236;-97.118;2022-10-13T15:34:03;21.10;95.80
17774;DHT22;9011;33.236;-97.118;2022-10-13T15:36:31;21.20;95.20
17774;DHT22;9011;33.236;-97.118;2022-10-13T15:38:59;21.30;95.90
17774;DHT22;9011;33.236;-97.118;2022-10-13T15:41:28;21.40;95.20
17774;DHT22;9011;33.236;-97.118;2022-10-13T15:43:58;21.30;94.90
17774;DHT22;9011;33.236;-97.118;2022-10-13T15:46:26;21.50;94.60
17774;DHT22;9011;33.236;-97.118;2022-10-13T15:48:56;21.80;95.10
17774;DHT22;9011;33.236;-97.118;2022-10-13T15:51:25;22.10;95.20